sensor_id;sensor_type;location;lat;lon;timestamp;P1;durP1;ratioP1;P2;durP2;ratioP2
67146;SDS011;70072;52.036;5.558;2024-03-22T00:02:21;9.93;;;5.60;;
67146;SDS011;70072;52.036;5.558;2024-03-22T00:04:47;9.88;;;5.80;;
67146;SDS011;70072;52.036;5.558;2024-03-22T00:07:12;9.05;;;5.68;;
67146;SDS011;70072;52.036;5.558;2024-03-22T00:09:38;10.18;;;5.28;;
67146;SDS011;70072;52.036;5.558;2024-03-22T00:12:03;7.13;;;5.55;;
67146;SDS011;70072;52.036;5.558;2024-03-22T00:14:29;8.18;;;5.75;;
67146;SDS011;70072;52.036;5.558;2024-03-22T00:16:55;9.20;;;5.20;;
67146;SDS011;70072;52.036;5.558;2024-03-22T00:19:22;10.55;;;5.78;;
67146;SDS011;70072;52.036;5.558;2024-03-22T00:21:48;8.07;;;5.03;;
67146;SDS011;70072;52.036;5.558;2024-03-22T00:24:14;7.93;;;5.93;;
67146;SDS011;70072;52.036;5.558;2024-03-22T00:26:39;10.98;;;5.88;;
67146;SDS011;70072;52.036;5.558;2024-03-22T00:29:05;8.35;;;5.43;;
67146;SDS011;70072;52.036;5.558;2024-03-22T00:31:31;8.20;;;5.50;;
67146;SDS011;70072;52.036;5.558;2024-03-22T00:33:56;9.27;;;6.10;;
67146;SDS011;70072;52.036;5.558;2024-03-22T00:36:22;8.02;;;5.28;;
67146;SDS011;70072;52.036;5.558;2024-03-22T00:38:48;8.82;;;5.80;;
67146;SDS011;70072;52.036;5.558;2024-03-22T00:41:14;7.05;;;5.70;;
67146;SDS011;70072;52.036;5.558;2024-03-22T00:43:39;10.15;;;5.82;;
67146;SDS011;70072;52.036;5.558;2024-03-22T00:46:05;8.05;;;5.50;;
67146;SDS011;70072;52.036;5.558;2024-03-22T00:48:30;8.07;;;5.40;;
67146;SDS011;70072;52.036;5.558;2024-03-22T00:50:56;8.40;;;6.00;;
67146;SDS011;70072;52.036;5.558;2024-03-22T00:53:25;10.90;;;5.85;;
67146;SDS011;70072;52.036;5.558;2024-03-22T00:55:51;8.18;;;5.60;;
67146;SDS011;70072;52.036;5.558;2024-03-22T00:58:17;11.23;;;5.90;;
67146;SDS011;70072;52.036;5.558;2024-03-22T01:00:44;10.07;;;5.30;;
67146;SDS011;70072;52.036;5.558;2024-03-22T01:03:12;10.30;;;5.80;;
67146;SDS011;70072;52.036;5.558;2024-03-22T01:05:38;9.85;;;5.95;;
67146;SDS011;70072;52.036;5.558;2024-03-22T01:08:05;9.30;;;5.85;;
67146;SDS011;70072;52.036;5.558;2024-03-22T01:10:32;9.07;;;6.15;;
67146;SDS011;70072;52.036;5.558;2024-03-22T01:12:58;8.02;;;5.80;;
67146;SDS011;70072;52.036;5.558;2024-03-22T01:15:25;8.38;;;5.97;;
67146;SDS011;70072;52.036;5.558;2024-03-22T01:17:51;9.57;;;6.22;;
67146;SDS011;70072;52.036;5.558;2024-03-22T01:20:17;8.90;;;5.70;;
67146;SDS011;70072;52.036;5.558;2024-03-22T01:22:43;10.63;;;5.75;;
67146;SDS011;70072;52.036;5.558;2024-03-22T01:25:09;8.98;;;6.32;;
67146;SDS011;70072;52.036;5.558;2024-03-22T01:27:37;9.10;;;6.70;;
67146;SDS011;70072;52.036;5.558;2024-03-22T01:30:03;8.95;;;6.47;;
67146;SDS011;70072;52.036;5.558;2024-03-22T01:32:29;12.20;;;5.95;;
67146;SDS011;70072;52.036;5.558;2024-03-22T01:34:54;10.73;;;6.10;;
67146;SDS011;70072;52.036;5.558;2024-03-22T01:37:20;9.50;;;6.00;;
67146;SDS011;70072;52.036;5.558;2024-03-22T01:39:48;10.85;;;6.30;;
67146;SDS011;70072;52.036;5.558;2024-03-22T01:42:14;11.30;;;6.32;;
67146;SDS011;70072;52.036;5.558;2024-03-22T01:44:41;10.30;;;6.10;;
67146;SDS011;70072;52.036;5.558;2024-03-22T01:47:07;9.93;;;6.13;;
67146;SDS011;70072;52.036;5.558;2024-03-22T01:49:33;9.32;;;5.93;;
67146;SDS011;70072;52.036;5.558;2024-03-22T01:51:59;8.65;;;6.28;;
67146;SDS011;70072;52.036;5.558;2024-03-22T01:54:25;9.70;;;5.38;;
67146;SDS011;70072;52.036;5.558;2024-03-22T01:56:51;9.18;;;5.85;;
67146;SDS011;70072;52.036;5.558;2024-03-22T01:59:17;9.05;;;6.43;;
67146;SDS011;70072;52.036;5.558;2024-03-22T02:01:44;8.60;;;5.70;;
67146;SDS011;70072;52.036;5.558;2024-03-22T02:04:09;9.40;;;6.45;;
67146;SDS011;70072;52.036;5.558;2024-03-22T02:06:35;9.60;;;6.32;;
67146;SDS011;70072;52.036;5.558;2024-03-22T02:09:01;11.13;;;6.80;;
67146;SDS011;70072;52.036;5.558;2024-03-22T02:11:29;11.52;;;6.30;;
67146;SDS011;70072;52.036;5.558;2024-03-22T02:13:57;8.85;;;6.05;;
67146;SDS011;70072;52.036;5.558;2024-03-22T02:16:23;10.10;;;6.22;;
67146;SDS011;70072;52.036;5.558;2024-03-22T02:18:48;10.05;;;6.20;;
67146;SDS011;70072;52.036;5.558;2024-03-22T02:21:15;8.02;;;5.70;;
67146;SDS011;70072;52.036;5.558;2024-03-22T02:23:40;8.02;;;5.57;;
67146;SDS011;70072;52.036;5.558;2024-03-22T02:26:06;8.38;;;6.10;;
67146;SDS011;70072;52.036;5.558;2024-03-22T02:28:33;12.70;;;5.82;;
67146;SDS011;70072;52.036;5.558;2024-03-22T02:31:02;8.60;;;5.60;;
67146;SDS011;70072;52.036;5.558;2024-03-22T02:33:28;9.40;;;5.90;;
67146;SDS011;70072;52.036;5.558;2024-03-22T02:35:53;10.02;;;6.03;;
67146;SDS011;70072;52.036;5.558;2024-03-22T02:38:19;8.65;;;5.85;;
67146;SDS011;70072;52.036;5.558;2024-03-22T02:40:46;9.32;;;6.38;;
67146;SDS011;70072;52.036;5.558;2024-03-22T02:43:12;8.25;;;5.53;;
67146;SDS011;70072;52.036;5.558;2024-03-22T02:45:38;7.60;;;5.55;;
67146;SDS011;70072;52.036;5.558;2024-03-22T02:48:04;8.98;;;6.15;;
67146;SDS011;70072;52.036;5.558;2024-03-22T02:50:33;9.13;;;5.55;;
67146;SDS011;70072;52.036;5.558;2024-03-22T02:53:00;7.97;;;5.65;;
67146;SDS011;70072;52.036;5.558;2024-03-22T02:55:25;8.20;;;5.53;;
67146;SDS011;70072;52.036;5.558;2024-03-22T02:57:51;8.50;;;5.32;;
67146;SDS011;70072;52.036;5.558;2024-03-22T03:00:17;8.30;;;5.53;;
67146;SDS011;70072;52.036;5.558;2024-03-22T03:02:43;7.82;;;5.35;;
67146;SDS011;70072;52.036;5.558;2024-03-22T03:05:11;8.13;;;5.60;;
67146;SDS011;70072;52.036;5.558;2024-03-22T03:07:39;7.85;;;5.25;;
67146;SDS011;70072;52.036;5.558;2024-03-22T03:10:05;7.93;;;5.60;;
67146;SDS011;70072;52.036;5.558;2024-03-22T03:12:31;8.65;;;5.57;;
67146;SDS011;70072;52.036;5.558;2024-03-22T03:14:57;9.73;;;5.50;;
67146;SDS011;70072;52.036;5.558;2024-03-22T03:17:23;6.53;;;5.03;;
67146;SDS011;70072;52.036;5.558;2024-03-22T03:19:48;8.05;;;5.43;;
67146;SDS011;70072;52.036;5.558;2024-03-22T03:22:14;7.82;;;5.03;;
67146;SDS011;70072;52.036;5.558;2024-03-22T03:24:40;7.38;;;4.90;;
67146;SDS011;70072;52.036;5.558;2024-03-22T03:27:05;7.70;;;5.38;;
67146;SDS011;70072;52.036;5.558;2024-03-22T03:29:31;9.07;;;5.50;;
67146;SDS011;70072;52.036;5.558;2024-03-22T03:31:57;7.40;;;5.13;;
67146;SDS011;70072;52.036;5.558;2024-03-22T03:34:22;9.32;;;5.55;;
67146;SDS011;70072;52.036;5.558;2024-03-22T03:36:48;6.78;;;4.85;;
67146;SDS011;70072;52.036;5.558;2024-03-22T03:39:14;8.90;;;5.35;;
67146;SDS011;70072;52.036;5.558;2024-03-22T03:41:39;7.50;;;5.35;;
67146;SDS011;70072;52.036;5.558;2024-03-22T03:44:05;8.02;;;4.97;;
67146;SDS011;70072;52.036;5.558;2024-03-22T03:46:33;9.73;;;5.60;;
67146;SDS011;70072;52.036;5.558;2024-03-22T03:48:58;8.68;;;5.40;;
67146;SDS011;70072;52.036;5.558;2024-03-22T03:51:24;10.75;;;5.00;;
67146;SDS011;70072;52.036;5.558;2024-03-22T03:53:49;6.80;;;5.05;;
67146;SDS011;70072;52.036;5.558;2024-03-22T03:56:15;6.35;;;4.40;;
67146;SDS011;70072;52.036;5.558;2024-03-22T03:58:40;9.02;;;4.65;;
67146;SDS011;70072;52.036;5.558;2024-03-22T04:01:11;7.75;;;4.78;;
67146;SDS011;70072;52.036;5.558;2024-03-22T04:03:36;8.18;;;5.15;;
67146;SDS011;70072;52.036;5.558;2024-03-22T04:06:02;8.05;;;5.65;;
67146;SDS011;70072;52.036;5.558;2024-03-22T04:08:30;8.18;;;4.60;;
67146;SDS011;70072;52.036;5.558;2024-03-22T04:10:57;7.35;;;5.05;;
67146;SDS011;70072;52.036;5.558;2024-03-22T04:13:26;7.00;;;4.75;;
67146;SDS011;70072;52.036;5.558;2024-03-22T04:15:52;7.65;;;4.55;;
67146;SDS011;70072;52.036;5.558;2024-03-22T04:18:23;6.40;;;4.80;;
67146;SDS011;70072;52.036;5.558;2024-03-22T04:20:58;8.77;;;4.97;;
67146;SDS011;70072;52.036;5.558;2024-03-22T04:23:24;8.80;;;4.40;;
67146;SDS011;70072;52.036;5.558;2024-03-22T04:25:57;8.48;;;5.18;;
67146;SDS011;70072;52.036;5.558;2024-03-22T04:28:24;7.00;;;4.57;;
67146;SDS011;70072;52.036;5.558;2024-03-22T04:33:24;6.63;;;4.80;;
67146;SDS011;70072;52.036;5.558;2024-03-22T04:35:50;9.20;;;5.40;;
67146;SDS011;70072;52.036;5.558;2024-03-22T04:38:16;8.07;;;5.28;;
67146;SDS011;70072;52.036;5.558;2024-03-22T04:40:42;9.20;;;5.22;;
67146;SDS011;70072;52.036;5.558;2024-03-22T04:43:10;6.43;;;5.25;;
67146;SDS011;70072;52.036;5.558;2024-03-22T04:45:35;8.45;;;5.20;;
67146;SDS011;70072;52.036;5.558;2024-03-22T04:48:02;8.73;;;5.68;;
67146;SDS011;70072;52.036;5.558;2024-03-22T04:50:28;7.22;;;4.90;;
67146;SDS011;70072;52.036;5.558;2024-03-22T04:52:54;9.52;;;4.85;;
67146;SDS011;70072;52.036;5.558;2024-03-22T04:55:20;8.05;;;4.97;;
67146;SDS011;70072;52.036;5.558;2024-03-22T04:57:45;6.60;;;4.72;;
67146;SDS011;70072;52.036;5.558;2024-03-22T05:00:11;7.85;;;5.13;;
67146;SDS011;70072;52.036;5.558;2024-03-22T05:02:37;7.05;;;4.88;;
67146;SDS011;70072;52.036;5.558;2024-03-22T05:05:03;7.85;;;5.00;;
67146;SDS011;70072;52.036;5.558;2024-03-22T05:07:29;8.27;;;5.18;;
67146;SDS011;70072;52.036;5.558;2024-03-22T05:09:54;5.63;;;4.43;;
67146;SDS011;70072;52.036;5.558;2024-03-22T05:12:22;8.73;;;5.32;;
67146;SDS011;70072;52.036;5.558;2024-03-22T05:14:48;6.82;;;4.72;;
67146;SDS011;70072;52.036;5.558;2024-03-22T05:17:13;7.88;;;5.05;;
67146;SDS011;70072;52.036;5.558;2024-03-22T05:19:39;8.20;;;5.00;;
67146;SDS011;70072;52.036;5.558;2024-03-22T05:22:04;8.32;;;5.70;;
67146;SDS011;70072;52.036;5.558;2024-03-22T05:24:31;6.30;;;4.45;;
67146;SDS011;70072;52.036;5.558;2024-03-22T05:26:57;7.90;;;4.80;;
67146;SDS011;70072;52.036;5.558;2024-03-22T05:29:23;8.73;;;4.75;;
67146;SDS011;70072;52.036;5.558;2024-03-22T05:31:49;6.60;;;5.00;;
67146;SDS011;70072;52.036;5.558;2024-03-22T05:34:17;6.70;;;4.68;;
67146;SDS011;70072;52.036;5.558;2024-03-22T05:36:43;5.85;;;4.57;;
67146;SDS011;70072;52.036;5.558;2024-03-22T05:39:10;7.03;;;5.05;;
67146;SDS011;70072;52.036;5.558;2024-03-22T05:41:37;7.57;;;4.95;;
67146;SDS011;70072;52.036;5.558;2024-03-22T05:44:02;8.48;;;4.78;;
67146;SDS011;70072;52.036;5.558;2024-03-22T05:46:29;7.22;;;4.75;;
67146;SDS011;70072;52.036;5.558;2024-03-22T05:48:57;6.60;;;4.70;;
67146;SDS011;70072;52.036;5.558;2024-03-22T05:51:23;6.55;;;4.80;;
67146;SDS011;70072;52.036;5.558;2024-03-22T05:53:49;6.93;;;4.70;;
67146;SDS011;70072;52.036;5.558;2024-03-22T05:56:15;6.47;;;4.60;;
67146;SDS011;70072;52.036;5.558;2024-03-22T05:58:41;12.48;;;4.75;;
67146;SDS011;70072;52.036;5.558;2024-03-22T06:01:06;6.63;;;4.38;;
67146;SDS011;70072;52.036;5.558;2024-03-22T06:03:32;6.28;;;4.40;;
67146;SDS011;70072;52.036;5.558;2024-03-22T06:06:00;6.40;;;4.72;;
67146;SDS011;70072;52.036;5.558;2024-03-22T06:08:26;7.18;;;4.88;;
67146;SDS011;70072;52.036;5.558;2024-03-22T06:10:56;5.88;;;4.13;;
67146;SDS011;70072;52.036;5.558;2024-03-22T06:13:22;6.55;;;4.63;;
67146;SDS011;70072;52.036;5.558;2024-03-22T06:15:48;7.60;;;5.10;;
67146;SDS011;70072;52.036;5.558;2024-03-22T06:18:14;7.13;;;4.88;;
67146;SDS011;70072;52.036;5.558;2024-03-22T06:20:42;6.60;;;4.68;;
67146;SDS011;70072;52.036;5.558;2024-03-22T06:23:08;6.60;;;4.95;;
67146;SDS011;70072;52.036;5.558;2024-03-22T06:25:34;7.10;;;4.55;;
67146;SDS011;70072;52.036;5.558;2024-03-22T06:28:00;6.53;;;4.28;;
67146;SDS011;70072;52.036;5.558;2024-03-22T06:30:25;5.80;;;4.40;;
67146;SDS011;70072;52.036;5.558;2024-03-22T06:32:52;6.40;;;4.82;;
67146;SDS011;70072;52.036;5.558;2024-03-22T06:35:21;7.57;;;4.18;;
67146;SDS011;70072;52.036;5.558;2024-03-22T06:37:49;5.43;;;4.13;;
67146;SDS011;70072;52.036;5.558;2024-03-22T06:40:15;6.28;;;4.38;;
67146;SDS011;70072;52.036;5.558;2024-03-22T06:42:41;8.02;;;4.28;;
67146;SDS011;70072;52.036;5.558;2024-03-22T06:45:07;5.55;;;4.20;;
67146;SDS011;70072;52.036;5.558;2024-03-22T06:47:32;6.35;;;4.60;;
67146;SDS011;70072;52.036;5.558;2024-03-22T06:49:58;8.73;;;3.85;;
67146;SDS011;70072;52.036;5.558;2024-03-22T06:52:24;7.32;;;4.57;;
67146;SDS011;70072;52.036;5.558;2024-03-22T06:54:49;5.53;;;4.18;;
67146;SDS011;70072;52.036;5.558;2024-03-22T06:57:15;8.25;;;4.32;;
67146;SDS011;70072;52.036;5.558;2024-03-22T06:59:41;5.20;;;3.83;;
67146;SDS011;70072;52.036;5.558;2024-03-22T07:02:06;7.43;;;4.00;;
67146;SDS011;70072;52.036;5.558;2024-03-22T07:04:34;9.70;;;4.45;;
67146;SDS011;70072;52.036;5.558;2024-03-22T07:07:00;9.20;;;4.05;;
67146;SDS011;70072;52.036;5.558;2024-03-22T07:09:25;7.03;;;4.25;;
67146;SDS011;70072;52.036;5.558;2024-03-22T07:11:53;7.28;;;3.97;;
67146;SDS011;70072;52.036;5.558;2024-03-22T07:14:19;5.45;;;3.95;;
67146;SDS011;70072;52.036;5.558;2024-03-22T07:16:44;4.82;;;3.83;;
67146;SDS011;70072;52.036;5.558;2024-03-22T07:19:13;5.47;;;3.80;;
67146;SDS011;70072;52.036;5.558;2024-03-22T07:21:38;6.00;;;3.83;;
67146;SDS011;70072;52.036;5.558;2024-03-22T07:24:04;6.80;;;3.95;;
67146;SDS011;70072;52.036;5.558;2024-03-22T07:26:29;7.75;;;3.88;;
67146;SDS011;70072;52.036;5.558;2024-03-22T07:28:55;5.30;;;3.67;;
67146;SDS011;70072;52.036;5.558;2024-03-22T07:31:21;8.20;;;3.38;;
67146;SDS011;70072;52.036;5.558;2024-03-22T07:33:47;5.75;;;3.88;;
67146;SDS011;70072;52.036;5.558;2024-03-22T07:36:15;5.97;;;3.63;;
67146;SDS011;70072;52.036;5.558;2024-03-22T07:38:46;8.00;;;3.72;;
67146;SDS011;70072;52.036;5.558;2024-03-22T07:41:14;9.02;;;3.85;;
67146;SDS011;70072;52.036;5.558;2024-03-22T07:43:39;6.13;;;3.80;;
67146;SDS011;70072;52.036;5.558;2024-03-22T07:46:05;5.45;;;3.22;;
67146;SDS011;70072;52.036;5.558;2024-03-22T07:48:31;4.47;;;3.28;;
67146;SDS011;70072;52.036;5.558;2024-03-22T07:51:00;6.22;;;3.35;;
67146;SDS011;70072;52.036;5.558;2024-03-22T07:53:26;4.10;;;3.05;;
67146;SDS011;70072;52.036;5.558;2024-03-22T07:55:52;7.55;;;3.30;;
67146;SDS011;70072;52.036;5.558;2024-03-22T07:58:17;9.55;;;4.10;;
67146;SDS011;70072;52.036;5.558;2024-03-22T08:00:44;10.40;;;3.78;;
67146;SDS011;70072;52.036;5.558;2024-03-22T08:03:13;8.90;;;3.50;;
67146;SDS011;70072;52.036;5.558;2024-03-22T08:05:42;7.70;;;3.60;;
67146;SDS011;70072;52.036;5.558;2024-03-22T08:08:10;4.18;;;3.50;;
67146;SDS011;70072;52.036;5.558;2024-03-22T08:10:36;4.72;;;3.50;;
67146;SDS011;70072;52.036;5.558;2024-03-22T08:13:01;8.27;;;3.92;;
67146;SDS011;70072;52.036;5.558;2024-03-22T08:15:27;4.30;;;3.63;;
67146;SDS011;70072;52.036;5.558;2024-03-22T08:17:52;6.75;;;3.60;;
67146;SDS011;70072;52.036;5.558;2024-03-22T08:20:18;8.90;;;4.07;;
67146;SDS011;70072;52.036;5.558;2024-03-22T08:22:44;6.07;;;3.60;;
67146;SDS011;70072;52.036;5.558;2024-03-22T08:25:09;7.15;;;3.47;;
67146;SDS011;70072;52.036;5.558;2024-03-22T08:27:35;6.03;;;3.65;;
67146;SDS011;70072;52.036;5.558;2024-03-22T08:30:03;5.43;;;3.38;;
67146;SDS011;70072;52.036;5.558;2024-03-22T08:32:32;5.38;;;3.80;;
67146;SDS011;70072;52.036;5.558;2024-03-22T08:34:57;8.70;;;3.65;;
67146;SDS011;70072;52.036;5.558;2024-03-22T08:37:23;6.32;;;3.60;;
67146;SDS011;70072;52.036;5.558;2024-03-22T08:39:49;6.70;;;3.58;;
67146;SDS011;70072;52.036;5.558;2024-03-22T08:42:14;4.28;;;3.55;;
67146;SDS011;70072;52.036;5.558;2024-03-22T08:44:40;11.50;;;3.38;;
67146;SDS011;70072;52.036;5.558;2024-03-22T08:47:08;5.30;;;3.72;;
67146;SDS011;70072;52.036;5.558;2024-03-22T08:49:34;6.80;;;4.10;;
67146;SDS011;70072;52.036;5.558;2024-03-22T08:52:03;6.07;;;3.78;;
67146;SDS011;70072;52.036;5.558;2024-03-22T08:54:33;7.20;;;3.70;;
67146;SDS011;70072;52.036;5.558;2024-03-22T08:56:59;18.75;;;4.05;;
67146;SDS011;70072;52.036;5.558;2024-03-22T08:59:25;6.07;;;3.80;;
67146;SDS011;70072;52.036;5.558;2024-03-22T09:01:51;11.77;;;4.90;;
67146;SDS011;70072;52.036;5.558;2024-03-22T09:04:17;7.80;;;4.00;;
67146;SDS011;70072;52.036;5.558;2024-03-22T09:06:43;8.65;;;4.00;;
67146;SDS011;70072;52.036;5.558;2024-03-22T09:09:08;8.82;;;4.22;;
67146;SDS011;70072;52.036;5.558;2024-03-22T09:11:36;6.22;;;4.05;;
67146;SDS011;70072;52.036;5.558;2024-03-22T09:14:02;7.20;;;4.22;;
67146;SDS011;70072;52.036;5.558;2024-03-22T09:16:27;6.38;;;3.80;;
67146;SDS011;70072;52.036;5.558;2024-03-22T09:18:53;6.55;;;4.10;;
67146;SDS011;70072;52.036;5.558;2024-03-22T09:21:19;8.45;;;4.00;;
67146;SDS011;70072;52.036;5.558;2024-03-22T09:23:44;7.97;;;4.32;;
67146;SDS011;70072;52.036;5.558;2024-03-22T09:26:10;6.75;;;4.18;;
67146;SDS011;70072;52.036;5.558;2024-03-22T09:28:36;7.47;;;4.13;;
67146;SDS011;70072;52.036;5.558;2024-03-22T09:31:05;7.38;;;3.78;;
67146;SDS011;70072;52.036;5.558;2024-03-22T09:33:36;6.28;;;4.03;;
67146;SDS011;70072;52.036;5.558;2024-03-22T09:36:02;5.07;;;4.10;;
67146;SDS011;70072;52.036;5.558;2024-03-22T09:38:28;7.88;;;4.00;;
67146;SDS011;70072;52.036;5.558;2024-03-22T09:40:53;10.80;;;4.18;;
67146;SDS011;70072;52.036;5.558;2024-03-22T09:43:22;9.27;;;4.57;;
67146;SDS011;70072;52.036;5.558;2024-03-22T09:45:48;5.55;;;3.92;;
67146;SDS011;70072;52.036;5.558;2024-03-22T09:48:20;5.95;;;4.40;;
67146;SDS011;70072;52.036;5.558;2024-03-22T09:50:48;9.43;;;3.73;;
67146;SDS011;70072;52.036;5.558;2024-03-22T09:53:18;7.40;;;3.92;;
67146;SDS011;70072;52.036;5.558;2024-03-22T09:55:47;7.53;;;4.03;;
67146;SDS011;70072;52.036;5.558;2024-03-22T09:58:14;8.25;;;4.13;;
67146;SDS011;70072;52.036;5.558;2024-03-22T10:00:42;5.95;;;3.40;;
67146;SDS011;70072;52.036;5.558;2024-03-22T10:03:10;5.10;;;3.70;;
67146;SDS011;70072;52.036;5.558;2024-03-22T10:05:36;7.10;;;3.85;;
67146;SDS011;70072;52.036;5.558;2024-03-22T10:08:02;6.38;;;3.90;;
67146;SDS011;70072;52.036;5.558;2024-03-22T10:10:30;5.30;;;3.85;;
67146;SDS011;70072;52.036;5.558;2024-03-22T10:12:57;8.50;;;4.05;;
67146;SDS011;70072;52.036;5.558;2024-03-22T10:15:23;5.47;;;3.83;;
67146;SDS011;70072;52.036;5.558;2024-03-22T10:17:49;4.55;;;3.60;;
67146;SDS011;70072;52.036;5.558;2024-03-22T10:20:15;5.63;;;3.58;;
67146;SDS011;70072;52.036;5.558;2024-03-22T10:22:48;9.23;;;3.75;;
67146;SDS011;70072;52.036;5.558;2024-03-22T10:25:19;5.03;;;3.70;;
67146;SDS011;70072;52.036;5.558;2024-03-22T10:27:45;6.70;;;3.90;;
67146;SDS011;70072;52.036;5.558;2024-03-22T10:30:15;6.72;;;4.00;;
67146;SDS011;70072;52.036;5.558;2024-03-22T10:32:44;5.55;;;3.53;;
67146;SDS011;70072;52.036;5.558;2024-03-22T10:35:11;7.00;;;3.60;;
67146;SDS011;70072;52.036;5.558;2024-03-22T10:37:38;4.97;;;3.40;;
67146;SDS011;70072;52.036;5.558;2024-03-22T10:40:07;5.50;;;3.60;;
67146;SDS011;70072;52.036;5.558;2024-03-22T10:42:36;5.13;;;3.78;;
67146;SDS011;70072;52.036;5.558;2024-03-22T10:45:07;5.28;;;3.00;;
67146;SDS011;70072;52.036;5.558;2024-03-22T10:47:35;5.30;;;3.33;;
67146;SDS011;70072;52.036;5.558;2024-03-22T10:52:58;6.05;;;2.80;;
67146;SDS011;70072;52.036;5.558;2024-03-22T10:58:22;6.68;;;3.33;;
67146;SDS011;70072;52.036;5.558;2024-03-22T11:00:53;3.72;;;2.80;;
67146;SDS011;70072;52.036;5.558;2024-03-22T11:03:23;4.20;;;3.05;;
67146;SDS011;70072;52.036;5.558;2024-03-22T11:05:54;5.60;;;3.00;;
67146;SDS011;70072;52.036;5.558;2024-03-22T11:10:51;3.88;;;2.75;;
67146;SDS011;70072;52.036;5.558;2024-03-22T11:13:17;4.65;;;2.70;;
67146;SDS011;70072;52.036;5.558;2024-03-22T11:15:43;5.88;;;3.08;;
67146;SDS011;70072;52.036;5.558;2024-03-22T11:18:09;8.88;;;3.00;;
67146;SDS011;70072;52.036;5.558;2024-03-22T11:20:38;3.55;;;2.55;;
67146;SDS011;70072;52.036;5.558;2024-03-22T11:23:04;3.20;;;2.47;;
67146;SDS011;70072;52.036;5.558;2024-03-22T11:25:33;3.28;;;2.35;;
67146;SDS011;70072;52.036;5.558;2024-03-22T11:27:59;7.28;;;2.50;;
67146;SDS011;70072;52.036;5.558;2024-03-22T11:30:29;5.72;;;2.88;;
67146;SDS011;70072;52.036;5.558;2024-03-22T11:32:57;3.50;;;2.50;;
67146;SDS011;70072;52.036;5.558;2024-03-22T11:35:26;5.35;;;2.60;;
67146;SDS011;70072;52.036;5.558;2024-03-22T11:37:52;5.43;;;2.03;;
67146;SDS011;70072;52.036;5.558;2024-03-22T11:40:21;2.85;;;2.30;;
67146;SDS011;70072;52.036;5.558;2024-03-22T11:42:49;3.60;;;2.10;;
67146;SDS011;70072;52.036;5.558;2024-03-22T11:45:17;3.80;;;2.25;;
67146;SDS011;70072;52.036;5.558;2024-03-22T11:47:44;5.22;;;2.22;;
67146;SDS011;70072;52.036;5.558;2024-03-22T11:50:12;4.50;;;2.78;;
67146;SDS011;70072;52.036;5.558;2024-03-22T11:52:41;3.33;;;2.00;;
67146;SDS011;70072;52.036;5.558;2024-03-22T11:55:07;3.25;;;2.17;;
67146;SDS011;70072;52.036;5.558;2024-03-22T11:57:32;2.38;;;2.15;;
67146;SDS011;70072;52.036;5.558;2024-03-22T11:59:59;2.97;;;2.00;;
67146;SDS011;70072;52.036;5.558;2024-03-22T12:02:25;3.20;;;1.90;;
67146;SDS011;70072;52.036;5.558;2024-03-22T12:04:51;3.35;;;2.05;;
67146;SDS011;70072;52.036;5.558;2024-03-22T12:07:17;2.38;;;1.85;;
67146;SDS011;70072;52.036;5.558;2024-03-22T12:09:46;2.35;;;2.00;;
67146;SDS011;70072;52.036;5.558;2024-03-22T12:12:12;3.33;;;1.90;;
67146;SDS011;70072;52.036;5.558;2024-03-22T12:14:40;3.80;;;1.90;;
67146;SDS011;70072;52.036;5.558;2024-03-22T12:17:07;2.78;;;1.90;;
67146;SDS011;70072;52.036;5.558;2024-03-22T12:19:32;2.63;;;1.80;;
67146;SDS011;70072;52.036;5.558;2024-03-22T12:21:58;3.38;;;1.95;;
67146;SDS011;70072;52.036;5.558;2024-03-22T12:24:25;3.50;;;2.00;;
67146;SDS011;70072;52.036;5.558;2024-03-22T12:26:52;2.10;;;1.50;;
67146;SDS011;70072;52.036;5.558;2024-03-22T12:29:18;3.90;;;1.80;;
67146;SDS011;70072;52.036;5.558;2024-03-22T12:31:44;4.55;;;2.10;;
67146;SDS011;70072;52.036;5.558;2024-03-22T12:34:10;3.70;;;1.38;;
67146;SDS011;70072;52.036;5.558;2024-03-22T12:36:36;4.15;;;1.73;;
67146;SDS011;70072;52.036;5.558;2024-03-22T12:39:02;2.53;;;1.80;;
67146;SDS011;70072;52.036;5.558;2024-03-22T12:41:28;3.92;;;1.70;;
67146;SDS011;70072;52.036;5.558;2024-03-22T12:43:55;2.65;;;1.60;;
67146;SDS011;70072;52.036;5.558;2024-03-22T12:46:20;4.22;;;1.90;;
67146;SDS011;70072;52.036;5.558;2024-03-22T12:48:47;2.53;;;1.60;;
67146;SDS011;70072;52.036;5.558;2024-03-22T12:51:13;1.88;;;1.58;;
67146;SDS011;70072;52.036;5.558;2024-03-22T12:53:39;3.83;;;1.60;;
67146;SDS011;70072;52.036;5.558;2024-03-22T12:56:08;2.67;;;1.40;;
67146;SDS011;70072;52.036;5.558;2024-03-22T12:58:33;1.75;;;1.40;;
67146;SDS011;70072;52.036;5.558;2024-03-22T13:01:01;2.05;;;1.50;;
67146;SDS011;70072;52.036;5.558;2024-03-22T13:03:28;1.88;;;1.30;;
67146;SDS011;70072;52.036;5.558;2024-03-22T13:05:54;2.25;;;1.40;;
67146;SDS011;70072;52.036;5.558;2024-03-22T13:08:21;1.80;;;1.42;;
67146;SDS011;70072;52.036;5.558;2024-03-22T13:10:47;2.55;;;1.63;;
67146;SDS011;70072;52.036;5.558;2024-03-22T13:13:15;2.22;;;1.30;;
67146;SDS011;70072;52.036;5.558;2024-03-22T13:15:44;1.70;;;1.33;;
67146;SDS011;70072;52.036;5.558;2024-03-22T13:18:12;2.38;;;1.42;;
67146;SDS011;70072;52.036;5.558;2024-03-22T13:20:38;1.77;;;1.48;;
67146;SDS011;70072;52.036;5.558;2024-03-22T13:23:04;2.15;;;1.50;;
67146;SDS011;70072;52.036;5.558;2024-03-22T13:25:30;1.30;;;1.20;;
67146;SDS011;70072;52.036;5.558;2024-03-22T13:27:55;1.88;;;1.23;;
67146;SDS011;70072;52.036;5.558;2024-03-22T13:30:21;1.20;;;1.10;;
67146;SDS011;70072;52.036;5.558;2024-03-22T13:32:47;1.10;;;1.00;;
67146;SDS011;70072;52.036;5.558;2024-03-22T13:35:13;2.20;;;1.30;;
67146;SDS011;70072;52.036;5.558;2024-03-22T13:37:39;4.07;;;1.33;;
67146;SDS011;70072;52.036;5.558;2024-03-22T13:40:05;2.00;;;1.30;;
67146;SDS011;70072;52.036;5.558;2024-03-22T13:42:32;1.73;;;1.10;;
67146;SDS011;70072;52.036;5.558;2024-03-22T13:44:57;1.30;;;1.10;;
67146;SDS011;70072;52.036;5.558;2024-03-22T13:47:23;1.98;;;1.30;;
67146;SDS011;70072;52.036;5.558;2024-03-22T13:49:49;2.78;;;1.50;;
67146;SDS011;70072;52.036;5.558;2024-03-22T13:52:15;3.55;;;1.20;;
67146;SDS011;70072;52.036;5.558;2024-03-22T13:54:41;2.95;;;1.70;;
67146;SDS011;70072;52.036;5.558;2024-03-22T13:57:06;1.23;;;1.10;;
67146;SDS011;70072;52.036;5.558;2024-03-22T13:59:32;3.30;;;1.50;;
67146;SDS011;70072;52.036;5.558;2024-03-22T14:01:58;2.08;;;1.10;;
67146;SDS011;70072;52.036;5.558;2024-03-22T14:04:24;2.65;;;1.30;;
67146;SDS011;70072;52.036;5.558;2024-03-22T14:06:51;2.92;;;1.20;;
67146;SDS011;70072;52.036;5.558;2024-03-22T14:09:21;1.70;;;1.10;;
67146;SDS011;70072;52.036;5.558;2024-03-22T14:11:47;1.58;;;1.00;;
67146;SDS011;70072;52.036;5.558;2024-03-22T14:14:14;2.08;;;1.27;;
67146;SDS011;70072;52.036;5.558;2024-03-22T14:16:40;2.42;;;1.40;;
67146;SDS011;70072;52.036;5.558;2024-03-22T14:19:09;4.13;;;1.30;;
67146;SDS011;70072;52.036;5.558;2024-03-22T14:21:35;1.55;;;1.40;;
67146;SDS011;70072;52.036;5.558;2024-03-22T14:24:01;1.50;;;1.20;;
67146;SDS011;70072;52.036;5.558;2024-03-22T14:26:28;1.75;;;1.13;;
67146;SDS011;70072;52.036;5.558;2024-03-22T14:28:53;3.47;;;1.35;;
67146;SDS011;70072;52.036;5.558;2024-03-22T14:31:19;2.15;;;1.33;;
67146;SDS011;70072;52.036;5.558;2024-03-22T14:33:44;2.55;;;1.20;;
67146;SDS011;70072;52.036;5.558;2024-03-22T14:36:13;2.25;;;1.10;;
67146;SDS011;70072;52.036;5.558;2024-03-22T14:38:38;3.00;;;1.38;;
67146;SDS011;70072;52.036;5.558;2024-03-22T14:41:04;2.53;;;1.50;;
67146;SDS011;70072;52.036;5.558;2024-03-22T14:43:30;3.13;;;1.38;;
67146;SDS011;70072;52.036;5.558;2024-03-22T14:45:59;2.40;;;1.35;;
67146;SDS011;70072;52.036;5.558;2024-03-22T14:48:25;1.75;;;1.20;;
67146;SDS011;70072;52.036;5.558;2024-03-22T14:50:51;1.92;;;1.00;;
67146;SDS011;70072;52.036;5.558;2024-03-22T14:53:18;2.53;;;1.35;;